PWSweather.com
Personal Weather Stations
Station Observations
WILS01
Leuven, WilseleBE 3012

LeuvenWilseleBE 3012

Lat: 50.89518, Lon: 4.69741

Elevation: 120

Station Type: DAVIS VP2

Latest ConditionsUpdated 5:08:56 AM GMT+01:01 Wednesday, Aug 5, 2015
Currently Today's Max Today's Min Today's Average
Temperature 54.3°F12.4°C 58.5°F14.7°C 54.3°F12.4°C 56.2°F13.4°C
Dew Point 50.2°F10.1°C 51.3°F10.7°C 49.8°F9.9°C 50.6°F10.3°C
Winds Calm Calm Calm SSWCalm SSW - Calm Calm
Wind Gusts -- 0.4 mph0.6 kmh - -
Humidity 86% 86% 73% 81%
Pressure 30.06 in1017.9 mb 30.06 in1017.9 mb 30.06 in1017.9 mb -
Hour Temp Dew Point Humidity Winds Wind Gusts Pressure Precip Precip Rate Daily Precip Total
05:08 AM 54.3°F12.4°C 50.2°F10.1°C 86% Calm Calm -- 30.06 in1017.9 mb - 0.00 in0.0 mm 0.00 in0.0 mm
04:58 AM 54.3°F12.4°C 49.8°F9.9°C 84% Calm Calm -- 30.06 in1017.9 mb - 0.00 in0.0 mm 0.00 in0.0 mm
04:48 AM 54.7°F12.6°C 50.0°F10.0°C 84% Calm Calm -- 30.06 in1017.9 mb - 0.00 in0.0 mm 0.00 in0.0 mm
04:37 AM 55.0°F12.8°C 50.4°F10.2°C 84% Calm Calm -- 30.06 in1017.9 mb - 0.00 in0.0 mm 0.00 in0.0 mm
04:27 AM 55.0°F12.8°C 50.4°F10.2°C 84% Calm Calm -- 30.06 in1017.9 mb - 0.00 in0.0 mm 0.00 in0.0 mm
04:16 AM 55.2°F12.9°C 50.5°F10.3°C 84% Calm Calm -- 30.06 in1017.9 mb - 0.00 in0.0 mm 0.00 in0.0 mm
04:06 AM 55.6°F13.1°C 50.9°F10.5°C 84% Calm Calm -- 30.06 in1017.9 mb - 0.00 in0.0 mm 0.00 in0.0 mm
03:56 AM 55.4°F13.0°C 50.7°F10.4°C 84% Calm Calm -- 30.06 in1017.9 mb - 0.00 in0.0 mm 0.00 in0.0 mm
03:45 AM 55.4°F13.0°C 50.4°F10.2°C 83% Calm Calm -- 30.06 in1017.9 mb - 0.00 in0.0 mm 0.00 in0.0 mm
03:35 AM 55.8°F13.2°C 50.5°F10.3°C 82% Calm Calm -- 30.06 in1017.9 mb - 0.00 in0.0 mm 0.00 in0.0 mm
03:25 AM 55.9°F13.3°C 50.5°F10.3°C 82% Calm Calm -- 30.06 in1017.9 mb - 0.00 in0.0 mm 0.00 in0.0 mm
03:14 AM 56.1°F13.4°C 50.7°F10.4°C 82% Calm Calm -- 30.06 in1017.9 mb - 0.00 in0.0 mm 0.00 in0.0 mm
03:04 AM 56.5°F13.6°C 51.1°F10.6°C 82% Calm Calm -- 30.06 in1017.9 mb - 0.00 in0.0 mm 0.00 in0.0 mm
02:54 AM 56.7°F13.7°C 51.3°F10.7°C 82% Calm Calm -- 30.06 in1017.9 mb - 0.00 in0.0 mm 0.00 in0.0 mm
02:43 AM 56.7°F13.7°C 51.3°F10.7°C 82% Calm Calm -- 30.06 in1017.9 mb - 0.00 in0.0 mm 0.00 in0.0 mm
02:33 AM 56.7°F13.7°C 51.3°F10.7°C 82% Calm Calm -- 30.06 in1017.9 mb - 0.00 in0.0 mm 0.00 in0.0 mm
02:23 AM 56.7°F13.7°C 51.3°F10.7°C 82% Calm Calm -- 30.06 in1017.9 mb - 0.00 in0.0 mm 0.00 in0.0 mm
02:13 AM 56.5°F13.6°C 51.3°F10.7°C 82% Calm Calm 0.4 mph0.6 kmh 30.06 in1017.9 mb - 0.00 in0.0 mm 0.00 in0.0 mm
02:03 AM 55.9°F13.3°C 50.9°F10.5°C 83% Calm Calm 0.2 mph0.3 kmh 30.06 in1017.9 mb - 0.00 in0.0 mm 0.00 in0.0 mm
01:52 AM 55.6°F13.1°C 50.4°F10.2°C 82% Calm Calm 0.2 mph0.3 kmh 30.06 in1017.9 mb - 0.00 in0.0 mm 0.00 in0.0 mm
01:42 AM 55.8°F13.2°C 50.0°F10.0°C 81% Calm Calm -- 30.06 in1017.9 mb - 0.00 in0.0 mm 0.00 in0.0 mm
01:31 AM 56.1°F13.4°C 50.2°F10.1°C 80% Calm Calm -- 30.06 in1017.9 mb - 0.00 in0.0 mm 0.00 in0.0 mm
01:20 AM 56.7°F13.7°C 50.2°F10.1°C 79% Calm Calm -- 30.06 in1017.9 mb - 0.00 in0.0 mm 0.00 in0.0 mm
01:10 AM 56.8°F13.8°C 50.4°F10.2°C 79% Calm Calm -- 30.06 in1017.9 mb - 0.00 in0.0 mm 0.00 in0.0 mm
12:59 AM 57.0°F13.9°C 50.5°F10.3°C 79% Calm Calm -- 30.06 in1017.9 mb - 0.00 in0.0 mm 0.00 in0.0 mm
12:49 AM 57.4°F14.1°C 50.9°F10.5°C 79% Calm Calm -- 30.06 in1017.9 mb - 0.00 in0.0 mm 0.00 in0.0 mm
12:39 AM 57.6°F14.2°C 50.7°F10.4°C 78% Calm Calm -- 30.06 in1017.9 mb - 0.00 in0.0 mm 0.00 in0.0 mm
12:28 AM 57.7°F14.3°C 50.5°F10.3°C 77% Calm Calm -- 30.06 in1017.9 mb - 0.00 in0.0 mm 0.00 in0.0 mm
12:18 AM 57.9°F14.4°C 50.0°F10.0°C 75% Calm Calm -- 30.06 in1017.9 mb - 0.00 in0.0 mm 0.00 in0.0 mm
12:07 AM 58.5°F14.7°C 50.0°F10.0°C 73% Calm Calm -- 30.06 in1017.9 mb - 0.00 in0.0 mm 0.00 in0.0 mm